Ely, MN

1:13 AM CST on December 27, 2014 (GMT -0600)
Ely Municipal | Change Station
CLOSE
Current Station
Airport
Location: Ely,
Elevation: 1453 ft
Nearby Weather Stations

Elev 1453 ft 47.82 °N, 91.83 °W | Updated 20 minutes ago

Overcast
Overcast
18 °F
Feels Like 12 °F
N
4
Wind Variable Wind from NNW

Today
High -- | Low -- °F
--% Chance of Precip.
Yesterday
High -- | Low -- °F
Precip. -- in
7:56 AM 4:21 PM
Waxing Crescent, 33% visible
Pressure 30.07 in
Visibility 10.0 miles
Clouds Overcast 1200 ft
Windchill 12 °F
Dew Point 16 °F
Humidity 93%
Rainfall 0.00 in
Snow Depth Not available.
UV 0 out of 12
Pollen .10 out of 12
Air Quality Not available.
Flu Activity Not available.
METAR KELO 270653Z AUTO 33003KT 10SM -SN OVC012 M08/M09 A3007 RMK AO2

More Conditions Fewer Conditions

Pressure 30.07 in
Visibility 10.0 miles
Clouds Overcast 1200 ft
Windchill 12 °F
Dew Point 16 °F
Humidity 93%
Rainfall 0.00 in
Snow Depth Not available.
UV 0 out of 12
Pollen .10 out of 12
Air Quality Not available.
Flu Activity Not available.
METAR KELO 270653Z AUTO 33003KT 10SM -SN OVC012 M08/M09 A3007 RMK AO2

More Conditions Fewer Conditions

10-Day Weather Forecast

Almanac

Astronomy

Dec. 27, 2014 Rise Set
Actual Time
Civil Twilight
Nautical Twilight
Astronomical Twilight
Moon
Length of Visible Light
Length of Day
Tomorrow will be .
, % of the Moon is Illuminated

Today's Extremes

State Highs State Lows

Community

WunderPhotos

Upload Photos

1,780,863 photos uploaded!

WunderBlogs® & News

Nearby

Air Quality

  Air Quality AQ Index Pollutant
Not available.

Snow Depth

Station Depth Elevation

Earthquake Activity

City Distance Mag. Time & Date
Minimum magnitude displayed is 2.5.

Coastal Water Temperatures

Place Temperature

Nearby Weather Stations